createdAt,value
2022-10-13T00:01:16.075Z,11.63
2022-10-13T00:03:47.600Z,10.87
2022-10-13T00:06:19.223Z,9.50
2022-10-13T00:08:48.695Z,11.47
2022-10-13T00:11:35.684Z,9.03
2022-10-13T00:14:05.486Z,11.60
2022-10-13T00:16:33.459Z,10.73
2022-10-13T00:19:00.733Z,10.40
2022-10-13T00:21:29.106Z,12.73
2022-10-13T00:23:57.354Z,12.03
2022-10-13T00:26:26.722Z,11.03
2022-10-13T00:28:56.476Z,12.07
2022-10-13T00:31:30.744Z,10.40
2022-10-13T00:34:02.199Z,13.50
2022-10-13T00:36:30.220Z,11.37
2022-10-13T00:38:58.497Z,10.40
2022-10-13T00:41:26.346Z,13.50
2022-10-13T00:44:38.080Z,12.43
2022-10-13T00:47:05.420Z,14.87
2022-10-13T00:49:32.565Z,14.03
2022-10-13T00:51:59.772Z,11.33
2022-10-13T00:54:26.883Z,13.13
2022-10-13T00:56:54.808Z,12.40
2022-10-13T00:59:29.251Z,14.80
2022-10-13T01:02:00.385Z,13.87
2022-10-13T01:04:34.544Z,13.53
2022-10-13T01:07:03.230Z,13.37
2022-10-13T01:09:37.531Z,13.20
2022-10-13T01:12:35.675Z,13.07
2022-10-13T01:15:38.086Z,10.30
2022-10-13T01:18:24.715Z,12.13
2022-10-13T01:21:17.796Z,11.50
2022-10-13T01:24:34.505Z,10.40
2022-10-13T01:27:24.161Z,11.10
2022-10-13T01:30:09.368Z,12.47
2022-10-13T01:32:48.375Z,13.13
2022-10-13T01:35:18.523Z,10.83
2022-10-13T01:37:57.987Z,9.50
2022-10-13T01:40:38.604Z,13.07
2022-10-13T01:43:19.824Z,11.40
2022-10-13T01:46:05.251Z,11.10
2022-10-13T01:48:36.287Z,12.13
2022-10-13T01:51:06.540Z,10.93
2022-10-13T01:53:38.072Z,10.90
2022-10-13T01:56:05.741Z,11.50
2022-10-13T01:58:36.786Z,11.37
2022-10-13T02:01:33.224Z,11.43
2022-10-13T02:04:35.059Z,10.27
2022-10-13T02:07:44.794Z,11.90
2022-10-13T02:10:24.062Z,10.70
2022-10-13T02:12:59.756Z,11.57
2022-10-13T02:15:49.414Z,11.80
2022-10-13T02:18:22.706Z,10.57
2022-10-13T02:20:51.256Z,12.03
2022-10-13T02:23:19.684Z,10.60
2022-10-13T02:25:50.096Z,10.33
2022-10-13T02:28:18.295Z,13.87
2022-10-13T02:30:46.609Z,10.90
2022-10-13T02:33:14.954Z,9.97
2022-10-13T02:35:45.270Z,9.77
2022-10-13T02:38:12.525Z,11.70
2022-10-13T02:40:39.674Z,12.17
2022-10-13T02:43:07.131Z,11.93
2022-10-13T02:45:34.234Z,11.13
2022-10-13T02:48:01.592Z,9.53
2022-10-13T02:50:29.623Z,11.13
2022-10-13T02:52:56.930Z,9.33
2022-10-13T02:55:24.068Z,10.37
2022-10-13T02:57:51.236Z,11.07
2022-10-13T03:00:18.500Z,8.73
2022-10-13T03:02:45.668Z,9.50
2022-10-13T03:05:12.820Z,11.20
2022-10-13T03:07:39.970Z,10.13
2022-10-13T03:10:07.932Z,11.70
2022-10-13T03:12:35.054Z,11.63
2022-10-13T03:15:02.137Z,9.83
2022-10-13T03:17:29.525Z,11.33
2022-10-13T03:19:56.760Z,10.00
2022-10-13T03:22:23.872Z,9.37
2022-10-13T03:24:51.030Z,10.40
2022-10-13T03:27:18.137Z,10.80
2022-10-13T03:29:45.226Z,13.77
2022-10-13T03:32:12.284Z,10.77
2022-10-13T03:34:39.645Z,11.43
2022-10-13T03:37:06.849Z,10.40
2022-10-13T03:39:34.211Z,13.60
2022-10-13T03:42:01.363Z,12.10
2022-10-13T03:44:28.790Z,10.57
2022-10-13T03:46:55.890Z,13.43
2022-10-13T03:49:22.942Z,9.20
2022-10-13T03:51:50.119Z,12.67
2022-10-13T03:54:17.313Z,10.70
2022-10-13T03:56:44.503Z,10.93
2022-10-13T03:59:14.786Z,10.97
2022-10-13T04:01:41.915Z,10.93
2022-10-13T04:04:12.614Z,12.03
2022-10-13T04:06:39.881Z,11.20
2022-10-13T04:09:07.077Z,10.87
2022-10-13T04:11:34.429Z,11.53
2022-10-13T04:14:01.553Z,10.90
2022-10-13T04:16:31.242Z,11.17
2022-10-13T04:19:05.431Z,9.53
2022-10-13T04:21:35.621Z,10.63
2022-10-13T04:24:04.603Z,12.97
2022-10-13T04:26:35.712Z,9.43
2022-10-13T04:29:06.020Z,9.90
2022-10-13T04:31:33.934Z,10.03
2022-10-13T04:34:01.189Z,13.00
2022-10-13T04:36:28.441Z,10.07
2022-10-13T04:38:56.419Z,11.57
2022-10-13T04:41:26.165Z,10.53
2022-10-13T04:43:54.586Z,13.07
2022-10-13T04:46:27.267Z,9.83
2022-10-13T04:48:55.770Z,10.93
2022-10-13T04:51:25.993Z,10.17
2022-10-13T04:53:58.967Z,11.63
2022-10-13T04:56:26.538Z,10.83
2022-10-13T04:58:54.655Z,11.37
2022-10-13T05:01:25.192Z,12.13
2022-10-13T05:04:01.786Z,13.23
2022-10-13T05:06:33.655Z,11.67
2022-10-13T05:09:01.034Z,9.27
2022-10-13T05:11:31.284Z,13.73
2022-10-13T05:13:59.998Z,11.00
2022-10-13T05:16:27.237Z,11.63
2022-10-13T05:18:55.508Z,10.40
2022-10-13T05:21:29.257Z,10.70
2022-10-13T05:23:57.937Z,14.93
2022-10-13T05:26:29.239Z,10.73
2022-10-13T05:28:58.261Z,10.90
2022-10-13T05:31:27.551Z,12.00
2022-10-13T05:33:55.030Z,9.97
2022-10-13T05:36:33.028Z,9.53
2022-10-13T05:39:07.722Z,12.23
2022-10-13T05:41:35.032Z,14.63
2022-10-13T05:44:08.890Z,12.63
2022-10-13T05:46:36.932Z,10.70
2022-10-13T05:49:04.517Z,13.47
2022-10-13T05:51:38.291Z,12.27
2022-10-13T05:54:17.329Z,11.37
2022-10-13T05:58:05.354Z,12.10
2022-10-13T06:00:32.611Z,13.67
2022-10-13T06:03:14.977Z,9.00
2022-10-13T06:05:47.506Z,13.03
2022-10-13T06:08:16.181Z,13.73
2022-10-13T06:10:46.429Z,13.27
2022-10-13T06:13:13.632Z,12.73
2022-10-13T06:15:41.721Z,12.17
2022-10-13T06:19:06.244Z,12.67
2022-10-13T06:21:35.933Z,12.63
2022-10-13T06:24:03.510Z,12.60
2022-10-13T06:26:30.728Z,15.40
2022-10-13T06:28:59.677Z,13.53
2022-10-13T06:31:27.714Z,11.63
2022-10-13T06:33:55.501Z,12.30
2022-10-13T06:36:22.778Z,12.70
2022-10-13T06:38:49.924Z,12.67
2022-10-13T06:41:17.632Z,11.83
2022-10-13T06:43:44.971Z,11.70
2022-10-13T06:46:13.288Z,11.83
2022-10-13T06:48:40.631Z,11.20
2022-10-13T06:51:12.200Z,11.67
2022-10-13T06:53:39.405Z,12.27
2022-10-13T06:56:08.317Z,11.73
2022-10-13T06:58:37.283Z,8.67
2022-10-13T07:01:06.174Z,10.40
2022-10-13T07:03:33.827Z,11.10
2022-10-13T07:06:03.702Z,11.13
2022-10-13T07:08:32.089Z,9.97
2022-10-13T07:11:00.052Z,11.47
2022-10-13T07:13:27.694Z,15.03
2022-10-13T07:15:56.312Z,11.87
2022-10-13T07:18:23.437Z,11.17
2022-10-13T07:20:50.641Z,11.67
2022-10-13T07:23:17.811Z,13.77
2022-10-13T07:25:45.214Z,13.37
2022-10-13T07:28:12.395Z,11.73
2022-10-13T07:30:40.496Z,12.03
2022-10-13T07:33:07.711Z,11.30
2022-10-13T07:35:37.971Z,12.80
2022-10-13T07:38:07.487Z,10.27
2022-10-13T07:40:35.667Z,12.03
2022-10-13T07:43:02.962Z,10.80
2022-10-13T07:45:30.332Z,13.40
2022-10-13T07:47:57.537Z,16.27
2022-10-13T07:50:24.743Z,11.20
2022-10-13T07:52:51.835Z,13.53
2022-10-13T07:55:19.078Z,12.23
2022-10-13T07:57:46.170Z,10.73
2022-10-13T08:00:14.027Z,12.90
2022-10-13T08:02:41.319Z,14.23
2022-10-13T08:05:08.839Z,13.10
2022-10-13T08:07:37.937Z,15.20
2022-10-13T08:10:05.688Z,13.10
2022-10-13T08:12:33.021Z,15.20
2022-10-13T08:15:03.412Z,13.30
2022-10-13T08:17:33.565Z,13.73
2022-10-13T08:20:00.894Z,12.23
2022-10-13T08:22:28.583Z,11.07
2022-10-13T08:24:56.249Z,15.03
2022-10-13T08:27:32.750Z,14.93
2022-10-13T08:30:13.469Z,13.87
2022-10-13T08:32:41.259Z,12.47
2022-10-13T08:35:10.081Z,12.63
2022-10-13T08:37:37.245Z,11.07
2022-10-13T08:40:04.981Z,12.60
2022-10-13T08:42:32.211Z,12.63
2022-10-13T08:48:01.699Z,11.93
2022-10-13T08:50:35.991Z,13.17
2022-10-13T08:53:29.239Z,12.73
2022-10-13T08:56:11.136Z,10.63
2022-10-13T08:58:42.071Z,11.93
2022-10-13T09:01:27.965Z,11.57
2022-10-13T09:04:16.791Z,11.77
2022-10-13T09:06:57.171Z,13.93
2022-10-13T09:09:24.553Z,11.23
2022-10-13T09:11:52.003Z,11.13
2022-10-13T09:14:28.122Z,15.37
2022-10-13T09:19:41.008Z,15.67
2022-10-13T09:22:45.037Z,11.93
2022-10-13T09:25:23.004Z,12.83
2022-10-13T09:28:00.774Z,11.77
2022-10-13T09:30:48.609Z,14.13
2022-10-13T09:33:24.296Z,13.97
2022-10-13T09:36:00.245Z,11.93
2022-10-13T09:38:28.049Z,12.50
2022-10-13T09:41:11.323Z,11.90
2022-10-13T09:43:58.684Z,10.87
2022-10-13T09:46:52.487Z,13.53
2022-10-13T09:49:31.467Z,11.23
2022-10-13T09:52:15.526Z,10.07
2022-10-13T09:54:52.961Z,12.43
2022-10-13T09:57:30.290Z,12.83
2022-10-13T10:00:24.714Z,10.00
2022-10-13T10:03:10.245Z,9.20
2022-10-13T10:05:55.575Z,9.20
2022-10-13T10:09:16.608Z,10.77
2022-10-13T10:11:50.325Z,10.60
2022-10-13T10:14:28.701Z,12.00
2022-10-13T10:17:36.301Z,10.27
2022-10-13T10:20:43.843Z,8.97
2022-10-13T10:23:39.560Z,10.93
2022-10-13T10:26:12.193Z,9.63
2022-10-13T10:29:16.018Z,8.97
2022-10-13T10:31:52.378Z,8.13
2022-10-13T10:34:22.111Z,9.13
2022-10-13T10:37:25.344Z,12.10
2022-10-13T10:40:30.016Z,7.67
2022-10-13T10:43:17.411Z,7.03
2022-10-13T10:45:48.084Z,11.27
2022-10-13T10:48:33.846Z,10.00
2022-10-13T10:51:02.593Z,9.83
2022-10-13T10:54:18.437Z,9.60
2022-10-13T10:57:00.793Z,8.53
2022-10-13T11:00:11.965Z,9.23
2022-10-13T11:02:58.129Z,7.90
2022-10-13T11:05:25.602Z,8.83
2022-10-13T11:07:52.773Z,7.63
2022-10-13T11:10:22.926Z,12.23
2022-10-13T11:12:52.883Z,8.73
2022-10-13T11:15:33.821Z,8.03
2022-10-13T11:18:01.034Z,10.17
2022-10-13T11:20:40.051Z,8.67
2022-10-13T11:23:13.406Z,7.57
2022-10-13T11:25:50.665Z,8.93
2022-10-13T11:28:23.974Z,10.00
2022-10-13T11:31:36.161Z,7.57
2022-10-13T11:34:04.170Z,6.03
2022-10-13T11:36:56.708Z,8.03
2022-10-13T11:39:40.933Z,11.63
2022-10-13T11:42:34.758Z,12.33
2022-10-13T11:45:27.622Z,8.27
2022-10-13T11:48:44.214Z,7.10
2022-10-13T11:51:35.930Z,7.40
2022-10-13T11:54:28.374Z,9.57
2022-10-13T11:56:58.535Z,11.23
2022-10-13T11:59:31.337Z,8.83
2022-10-13T12:02:18.968Z,10.13
2022-10-13T12:05:26.288Z,8.83
2022-10-13T12:08:01.170Z,7.93
2022-10-13T12:10:38.064Z,11.23
2022-10-13T12:13:06.072Z,9.97
2022-10-13T12:15:44.281Z,7.70
2022-10-13T12:18:38.258Z,7.37
2022-10-13T12:21:22.500Z,9.00
2022-10-13T12:23:52.350Z,8.70
2022-10-13T12:26:24.508Z,10.33
2022-10-13T12:29:01.151Z,9.17
2022-10-13T12:31:50.440Z,9.07
2022-10-13T12:34:33.043Z,9.20
2022-10-13T12:37:31.190Z,6.20
2022-10-13T12:40:00.663Z,7.87
2022-10-13T12:42:37.971Z,7.70
2022-10-13T12:45:07.030Z,10.93
2022-10-13T12:47:44.774Z,9.37
2022-10-13T12:50:30.900Z,8.57
2022-10-13T12:53:17.320Z,8.00
2022-10-13T12:56:00.905Z,7.97
2022-10-13T12:58:42.435Z,8.87
2022-10-13T13:01:35.401Z,7.30
2022-10-13T13:04:22.771Z,10.33
2022-10-13T13:06:57.509Z,8.03
2022-10-13T13:09:30.537Z,9.40
2022-10-13T13:12:12.889Z,7.67
2022-10-13T13:14:44.198Z,7.23
2022-10-13T13:17:57.875Z,9.37
2022-10-13T13:20:32.990Z,7.03
2022-10-13T13:23:02.997Z,7.67
2022-10-13T13:25:30.461Z,8.00
2022-10-13T13:27:57.654Z,9.23
2022-10-13T13:30:25.056Z,7.87
2022-10-13T13:32:52.173Z,7.23
2022-10-13T13:35:19.346Z,7.97
2022-10-13T13:37:51.149Z,7.20
2022-10-13T13:40:26.068Z,8.70
2022-10-13T13:42:54.280Z,12.03
2022-10-13T13:45:25.095Z,7.53
2022-10-13T13:47:53.059Z,9.40
2022-10-13T13:50:27.044Z,8.83
2022-10-13T13:52:54.574Z,7.40
2022-10-13T13:55:23.250Z,7.77
2022-10-13T13:57:50.364Z,8.73
2022-10-13T14:00:18.950Z,9.27
2022-10-13T14:02:46.505Z,10.27
2022-10-13T14:05:13.938Z,8.67
2022-10-13T14:07:41.705Z,8.73
2022-10-13T14:10:11.626Z,9.13
2022-10-13T14:12:39.524Z,8.50
2022-10-13T14:15:07.885Z,9.87
2022-10-13T14:17:35.131Z,8.97
2022-10-13T14:20:02.533Z,10.17
2022-10-13T14:22:29.806Z,9.27
2022-10-13T14:24:57.077Z,9.27
2022-10-13T14:27:24.325Z,10.00
2022-10-13T14:29:51.420Z,9.50
2022-10-13T14:32:18.851Z,10.60
2022-10-13T14:34:46.212Z,14.07
2022-10-13T14:37:13.384Z,9.80
2022-10-13T14:39:40.488Z,9.10
2022-10-13T14:42:07.643Z,10.43
2022-10-13T14:44:34.679Z,9.17
2022-10-13T14:47:01.763Z,11.90
2022-10-13T14:49:28.902Z,9.83
2022-10-13T14:51:56.021Z,10.30
2022-10-13T14:54:23.592Z,13.30
2022-10-13T14:56:51.178Z,12.40
2022-10-13T14:59:18.782Z,9.60
2022-10-13T15:01:47.309Z,9.00
2022-10-13T15:04:14.926Z,9.87
2022-10-13T15:06:42.161Z,12.13
2022-10-13T15:09:10.641Z,10.33
2022-10-13T15:11:38.049Z,11.27
2022-10-13T15:14:05.201Z,10.40
2022-10-13T15:16:33.783Z,10.53
2022-10-13T15:19:00.999Z,10.00
2022-10-13T15:21:28.220Z,10.03
2022-10-13T15:23:57.729Z,13.23
2022-10-13T15:26:25.113Z,13.10
2022-10-13T15:28:54.245Z,12.10
2022-10-13T15:31:24.831Z,11.43
2022-10-13T15:33:54.135Z,11.50
2022-10-13T15:36:23.658Z,11.10
2022-10-13T15:38:52.146Z,11.73
2022-10-13T15:41:20.031Z,11.63
2022-10-13T15:43:48.086Z,11.67
2022-10-13T15:46:21.834Z,12.97
2022-10-13T15:48:54.292Z,13.80
2022-10-13T15:51:24.599Z,14.17
2022-10-13T15:53:51.826Z,12.03
2022-10-13T15:56:18.939Z,10.70
2022-10-13T15:58:46.103Z,10.40
2022-10-13T16:01:14.628Z,11.37
2022-10-13T16:03:42.339Z,12.60
2022-10-13T16:06:13.390Z,14.30
2022-10-13T16:08:45.839Z,12.57
2022-10-13T16:11:17.341Z,12.07
2022-10-13T16:13:49.942Z,12.07
2022-10-13T16:16:18.672Z,15.93
2022-10-13T16:18:46.354Z,12.33
2022-10-13T16:21:23.307Z,12.57
2022-10-13T16:23:50.465Z,13.57
2022-10-13T16:26:18.735Z,13.33
2022-10-13T16:28:46.947Z,13.10
2022-10-13T16:31:17.209Z,14.90
2022-10-13T16:33:46.007Z,12.80
2022-10-13T16:36:17.178Z,11.77
2022-10-13T16:38:48.197Z,11.67
2022-10-13T16:41:18.653Z,14.13
2022-10-13T16:43:47.278Z,12.87
2022-10-13T16:46:18.012Z,14.80
2022-10-13T16:48:46.951Z,14.20
2022-10-13T16:51:24.396Z,12.67
2022-10-13T16:53:54.632Z,12.87
2022-10-13T16:56:24.497Z,12.73
2022-10-13T16:58:58.687Z,11.17
2022-10-13T17:01:27.241Z,13.00
2022-10-13T17:03:55.662Z,12.83
2022-10-13T17:06:26.539Z,14.33
2022-10-13T17:08:53.992Z,14.43
2022-10-13T17:11:28.862Z,11.87
2022-10-13T17:14:01.431Z,12.57
2022-10-13T17:16:29.006Z,14.40
2022-10-13T17:18:57.370Z,13.30
2022-10-13T17:21:24.821Z,12.07
2022-10-13T17:23:52.044Z,12.27
2022-10-13T17:26:21.162Z,15.67
2022-10-13T17:28:48.730Z,12.17
2022-10-13T17:31:24.351Z,15.27
2022-10-13T17:33:54.807Z,12.03
2022-10-13T17:36:29.498Z,12.23
2022-10-13T17:39:04.367Z,11.97
2022-10-13T17:41:31.828Z,12.97
2022-10-13T17:43:59.084Z,12.60
2022-10-13T17:46:37.359Z,12.83
2022-10-13T17:49:11.976Z,14.50
2022-10-13T17:51:44.096Z,13.47
2022-10-13T17:54:16.683Z,13.00
2022-10-13T17:56:45.358Z,13.47
2022-10-13T17:59:14.067Z,13.13
2022-10-13T18:01:42.298Z,13.60
2022-10-13T18:04:16.413Z,13.03
2022-10-13T18:06:44.287Z,12.27
2022-10-13T18:09:16.210Z,12.70
2022-10-13T18:11:50.627Z,17.50
2022-10-13T18:14:24.872Z,11.97
2022-10-13T18:16:53.160Z,14.43
2022-10-13T18:19:21.528Z,13.07
2022-10-13T18:21:49.883Z,12.07
2022-10-13T18:24:17.448Z,14.40
2022-10-13T18:26:45.768Z,14.93
2022-10-13T18:29:13.633Z,13.83
2022-10-13T18:31:45.620Z,12.13
2022-10-13T18:34:17.107Z,13.87
2022-10-13T18:36:52.264Z,15.33
2022-10-13T18:39:25.281Z,11.47
2022-10-13T18:41:55.776Z,12.43
2022-10-13T18:44:24.118Z,14.03
2022-10-13T18:46:53.942Z,11.77
2022-10-13T18:49:24.037Z,14.37
2022-10-13T18:51:52.011Z,13.07
2022-10-13T18:54:19.163Z,12.67
2022-10-13T18:56:46.240Z,11.27
2022-10-13T18:59:13.447Z,12.10
2022-10-13T19:01:41.165Z,13.87
2022-10-13T19:04:08.947Z,11.20
2022-10-13T19:06:37.705Z,14.37
2022-10-13T19:09:08.685Z,11.33
2022-10-13T19:11:37.451Z,11.10
2022-10-13T19:14:07.519Z,10.70
2022-10-13T19:16:39.282Z,9.60
2022-10-13T19:19:09.096Z,11.20
2022-10-13T19:21:37.802Z,10.57
2022-10-13T19:24:05.886Z,9.87
2022-10-13T19:26:35.931Z,9.67
2022-10-13T19:29:08.884Z,9.67
2022-10-13T19:31:38.973Z,9.13
2022-10-13T19:34:06.365Z,10.53
2022-10-13T19:36:39.146Z,8.77
2022-10-13T19:39:16.591Z,9.53
2022-10-13T19:41:45.551Z,8.53
2022-10-13T19:44:14.427Z,9.37
2022-10-13T19:46:44.032Z,9.13
2022-10-13T19:49:14.147Z,8.80
2022-10-13T19:51:45.929Z,10.10
2022-10-13T19:54:14.145Z,9.87
2022-10-13T19:56:41.310Z,10.30
2022-10-13T19:59:08.999Z,11.23
2022-10-13T20:01:40.105Z,8.50
2022-10-13T20:04:11.139Z,12.43
2022-10-13T20:06:38.806Z,10.47
2022-10-13T20:09:06.572Z,8.90
2022-10-13T20:11:33.865Z,7.97
2022-10-13T20:14:03.880Z,10.30
2022-10-13T20:16:31.343Z,8.27
2022-10-13T20:19:00.840Z,9.50
2022-10-13T20:21:29.861Z,8.03
2022-10-13T20:23:58.103Z,7.83
2022-10-13T20:26:26.128Z,8.93
2022-10-13T20:28:54.565Z,7.20
2022-10-13T20:31:23.781Z,6.83
2022-10-13T20:33:59.024Z,7.50
2022-10-13T20:36:28.403Z,7.23
2022-10-13T20:38:55.875Z,7.07
2022-10-13T20:41:28.883Z,7.60
2022-10-13T20:43:59.246Z,8.03
2022-10-13T20:46:27.271Z,7.70
2022-10-13T20:49:13.115Z,7.70
2022-10-13T20:51:42.798Z,7.80
2022-10-13T20:54:12.498Z,7.83
2022-10-13T20:56:40.217Z,6.43
2022-10-13T20:59:11.709Z,8.03
2022-10-13T21:01:39.225Z,7.17
2022-10-13T21:04:06.915Z,6.97
2022-10-13T21:06:35.947Z,8.67
2022-10-13T21:09:05.385Z,8.93
2022-10-13T21:11:32.970Z,8.77
2022-10-13T21:14:00.241Z,8.10
2022-10-13T21:16:29.049Z,6.93
2022-10-13T21:18:58.066Z,7.83
2022-10-13T21:21:46.633Z,7.93
2022-10-13T21:24:13.815Z,7.93
2022-10-13T21:26:41.701Z,7.10
2022-10-13T21:29:08.917Z,7.17
2022-10-13T21:31:36.155Z,7.30
2022-10-13T21:34:03.559Z,7.80
2022-10-13T21:36:32.908Z,8.83
2022-10-13T21:39:06.177Z,7.10
2022-10-13T21:41:33.873Z,7.73
2022-10-13T21:44:02.248Z,7.63
2022-10-13T21:46:32.252Z,7.80
2022-10-13T21:49:03.094Z,7.03
2022-10-13T21:51:35.238Z,7.67
2022-10-13T21:54:07.272Z,8.20
2022-10-13T21:56:35.912Z,7.17
2022-10-13T21:59:04.717Z,7.03
2022-10-13T22:02:10.528Z,8.13
2022-10-13T22:04:38.010Z,6.73
2022-10-13T22:07:06.089Z,9.87
2022-10-13T22:09:53.229Z,8.73
2022-10-13T22:12:20.462Z,8.40
2022-10-13T22:14:47.789Z,8.27
2022-10-13T22:17:14.960Z,7.70
2022-10-13T22:19:42.173Z,7.90
2022-10-13T22:22:09.274Z,8.47
2022-10-13T22:24:57.225Z,8.03
2022-10-13T22:27:24.303Z,7.80
2022-10-13T22:29:51.473Z,9.17
2022-10-13T22:32:18.560Z,10.40
2022-10-13T22:34:45.638Z,7.57
2022-10-13T22:37:12.690Z,7.37
2022-10-13T22:39:40.066Z,8.53
2022-10-13T22:42:07.313Z,8.73
2022-10-13T22:44:34.537Z,9.33
2022-10-13T22:47:20.632Z,8.93
2022-10-13T22:49:47.894Z,8.37
2022-10-13T22:52:14.957Z,8.77
2022-10-13T22:54:42.051Z,8.77
2022-10-13T22:57:09.260Z,8.90
2022-10-13T22:59:36.459Z,10.27
2022-10-13T23:02:03.599Z,9.53
2022-10-13T23:04:30.901Z,11.00
2022-10-13T23:06:58.030Z,9.20
2022-10-13T23:09:25.138Z,9.10
2022-10-13T23:11:55.079Z,8.63
2022-10-13T23:14:24.679Z,9.83
2022-10-13T23:16:51.793Z,9.87
2022-10-13T23:19:20.415Z,10.83
2022-10-13T23:21:47.466Z,11.30
2022-10-13T23:24:14.651Z,10.77
2022-10-13T23:26:41.730Z,9.40
2022-10-13T23:29:10.337Z,8.47
2022-10-13T23:31:37.519Z,10.77
2022-10-13T23:34:04.636Z,9.90
2022-10-13T23:36:33.546Z,11.80
2022-10-13T23:39:06.337Z,9.07
2022-10-13T23:41:34.195Z,10.50
2022-10-13T23:44:01.359Z,9.87
2022-10-13T23:46:29.017Z,10.37
2022-10-13T23:48:56.646Z,10.60
2022-10-13T23:51:26.437Z,10.57
2022-10-13T23:53:54.514Z,9.63
2022-10-13T23:56:22.511Z,11.03
2022-10-13T23:58:49.889Z,13.17
